createdAt,value
2023-05-04T00:01:31.237Z,15.13
2023-05-04T00:04:33.155Z,14.55
2023-05-04T00:07:35.113Z,16.23
2023-05-04T00:10:36.988Z,10.40
2023-05-04T00:13:38.950Z,12.73
2023-05-04T00:16:40.828Z,10.38
2023-05-04T00:19:44.740Z,9.85
2023-05-04T00:22:51.208Z,10.70
2023-05-04T00:25:53.226Z,11.75
2023-05-04T00:32:24.617Z,10.05
2023-05-04T00:35:26.779Z,11.98
2023-05-04T00:38:28.777Z,11.98
2023-05-04T00:41:30.751Z,10.18
2023-05-04T00:44:34.634Z,11.30
2023-05-04T00:47:38.415Z,8.70
2023-05-04T00:50:40.994Z,10.88
2023-05-04T00:53:47.849Z,10.23
2023-05-04T00:56:49.990Z,10.30
2023-05-04T00:59:53.744Z,12.57
2023-05-04T01:02:55.812Z,9.35
2023-05-04T01:06:16.235Z,13.85
2023-05-04T01:09:30.777Z,15.05
2023-05-04T01:12:45.437Z,13.00
2023-05-04T01:15:48.565Z,14.68
2023-05-04T01:18:51.193Z,12.10
2023-05-04T01:21:53.224Z,13.63
2023-05-04T01:24:55.560Z,13.75
2023-05-04T01:28:06.638Z,12.85
2023-05-04T01:31:14.565Z,12.30
2023-05-04T01:34:17.168Z,13.30
2023-05-04T01:37:19.916Z,13.63
2023-05-04T01:40:21.774Z,13.00
2023-05-04T01:43:24.902Z,15.60
2023-05-04T01:46:26.959Z,13.80
2023-05-04T01:49:29.065Z,14.20
2023-05-04T01:52:31.028Z,14.98
2023-05-04T01:55:35.339Z,12.98
2023-05-04T01:58:37.354Z,12.07
2023-05-04T02:01:39.383Z,13.82
2023-05-04T02:04:41.639Z,14.15
2023-05-04T02:07:43.479Z,12.52
2023-05-04T02:10:45.269Z,10.52
2023-05-04T02:13:48.866Z,13.43
2023-05-04T02:16:51.014Z,11.52
2023-05-04T02:19:52.820Z,14.05
2023-05-04T02:22:54.682Z,13.40
2023-05-04T02:25:57.370Z,13.25
2023-05-04T02:28:59.143Z,13.57
2023-05-04T02:32:02.601Z,10.18
2023-05-04T02:38:06.402Z,10.50
2023-05-04T02:41:08.401Z,11.38
2023-05-04T02:44:11.852Z,11.23
2023-05-04T02:50:23.955Z,15.88
2023-05-04T02:53:25.818Z,9.18
2023-05-04T02:56:28.536Z,11.18
2023-05-04T02:59:30.466Z,9.55
2023-05-04T03:02:32.515Z,11.18
2023-05-04T03:05:34.466Z,10.40
2023-05-04T03:08:38.657Z,9.77
2023-05-04T03:11:41.622Z,11.15
2023-05-04T03:14:45.054Z,9.93
2023-05-04T03:20:53.454Z,10.18
2023-05-04T03:23:55.452Z,8.63
2023-05-04T03:26:57.471Z,10.57
2023-05-04T03:29:59.255Z,13.00
2023-05-04T03:33:01.721Z,11.55
2023-05-04T03:36:03.854Z,11.98
2023-05-04T03:39:06.436Z,11.38
2023-05-04T03:42:08.520Z,16.23
2023-05-04T03:45:48.017Z,11.13
2023-05-04T03:48:50.076Z,14.00
2023-05-04T03:51:53.237Z,13.35
2023-05-04T03:54:55.050Z,10.05
2023-05-04T03:58:01.570Z,10.23
2023-05-04T04:01:03.917Z,9.50
2023-05-04T04:04:06.811Z,13.32
2023-05-04T04:07:08.763Z,12.70
2023-05-04T04:10:12.503Z,14.75
2023-05-04T04:13:14.627Z,11.18
2023-05-04T04:16:16.619Z,12.13
2023-05-04T04:19:18.689Z,17.23
2023-05-04T04:22:20.613Z,13.65
2023-05-04T04:25:23.324Z,12.63
2023-05-04T04:28:27.470Z,10.55
2023-05-04T04:31:30.487Z,14.65
2023-05-04T04:34:32.357Z,16.02
2023-05-04T04:37:34.348Z,18.77
2023-05-04T04:40:36.443Z,13.65
2023-05-04T04:43:38.240Z,13.45
2023-05-04T04:46:41.706Z,20.38
2023-05-04T04:49:44.498Z,12.38
2023-05-04T04:52:47.208Z,16.17
2023-05-04T04:55:49.232Z,16.70
2023-05-04T04:58:52.111Z,15.27
2023-05-04T05:01:53.902Z,17.98
2023-05-04T05:04:55.770Z,15.88
2023-05-04T05:07:57.768Z,12.65
2023-05-04T05:11:01.211Z,13.10
2023-05-04T05:17:05.113Z,14.57
2023-05-04T05:20:12.976Z,19.23
2023-05-04T05:23:16.409Z,16.00
2023-05-04T05:26:18.196Z,20.10
2023-05-04T05:29:23.201Z,15.30
2023-05-04T05:32:25.181Z,16.45
2023-05-04T05:35:27.108Z,18.92
2023-05-04T05:38:29.004Z,14.93
2023-05-04T05:41:30.769Z,20.10
2023-05-04T05:44:37.585Z,11.70
2023-05-04T05:47:40.148Z,16.30
2023-05-04T05:50:42.100Z,14.73
2023-05-04T05:53:45.749Z,12.40
2023-05-04T05:56:47.542Z,13.88
2023-05-04T05:59:49.436Z,10.38
2023-05-04T06:02:51.848Z,18.10
2023-05-04T06:05:54.556Z,17.30
2023-05-04T06:08:56.665Z,13.98
2023-05-04T06:11:58.688Z,13.05
2023-05-04T06:15:00.725Z,11.88
2023-05-04T06:18:03.634Z,13.20
2023-05-04T06:21:05.625Z,13.65
2023-05-04T06:24:07.539Z,14.93
2023-05-04T06:27:09.827Z,11.82
2023-05-04T06:30:13.003Z,12.63
2023-05-04T06:33:15.302Z,10.25
2023-05-04T06:36:17.475Z,10.75
2023-05-04T06:39:19.695Z,11.70
2023-05-04T06:42:21.472Z,10.98
2023-05-04T06:45:23.962Z,7.93
2023-05-04T06:48:27.443Z,9.18
2023-05-04T06:54:31.940Z,10.30
2023-05-04T06:57:34.106Z,8.10
2023-05-04T07:00:37.094Z,8.00
2023-05-04T07:03:38.975Z,6.82
2023-05-04T07:06:40.830Z,10.27
2023-05-04T07:09:43.694Z,10.82
2023-05-04T07:12:45.603Z,11.45
2023-05-04T07:15:47.342Z,9.23
2023-05-04T07:18:50.773Z,7.93
2023-05-04T07:24:59.360Z,8.63
2023-05-04T07:28:01.386Z,10.55
2023-05-04T07:31:03.434Z,9.77
2023-05-04T07:34:05.444Z,11.77
2023-05-04T07:37:08.005Z,14.18
2023-05-04T07:40:11.556Z,8.70
2023-05-04T07:46:16.477Z,10.55
2023-05-04T07:49:19.970Z,9.35
2023-05-04T07:55:24.777Z,9.48
2023-05-04T07:58:26.896Z,8.02
2023-05-04T08:01:28.693Z,9.00
2023-05-04T08:04:30.738Z,6.32
2023-05-04T08:07:32.691Z,8.25
2023-05-04T08:10:37.962Z,6.78
2023-05-04T08:13:42.011Z,7.70
2023-05-04T08:16:43.850Z,7.35
2023-05-04T08:19:45.855Z,9.85
2023-05-04T08:22:47.642Z,6.20
2023-05-04T08:25:49.582Z,7.28
2023-05-04T08:28:51.502Z,7.88
2023-05-04T08:31:56.689Z,8.82
2023-05-04T08:34:58.633Z,8.27
2023-05-04T08:38:02.982Z,10.23
2023-05-04T08:41:06.031Z,9.75
2023-05-04T08:44:12.346Z,10.48
2023-05-04T08:47:14.157Z,10.27
2023-05-04T08:50:16.689Z,7.55
2023-05-04T08:53:21.399Z,12.37
2023-05-04T08:56:24.743Z,12.10
2023-05-04T08:59:28.557Z,6.43
2023-05-04T09:02:32.837Z,18.20
2023-05-04T09:05:35.369Z,9.32
2023-05-04T09:08:37.581Z,15.03
2023-05-04T09:11:39.776Z,28.52
2023-05-04T09:14:41.769Z,10.13
2023-05-04T09:20:58.725Z,7.25
2023-05-04T09:24:00.920Z,11.68
2023-05-04T09:27:12.161Z,10.98
2023-05-04T09:30:14.157Z,9.13
2023-05-04T09:33:21.380Z,9.98
2023-05-04T09:36:25.083Z,8.30
2023-05-04T09:39:27.250Z,6.85
2023-05-04T09:42:30.171Z,10.02
2023-05-04T09:45:47.333Z,8.02
2023-05-04T09:48:53.570Z,5.90
2023-05-04T09:51:57.999Z,11.93
2023-05-04T09:55:00.192Z,7.45
2023-05-04T09:58:05.103Z,6.25
2023-05-04T10:01:07.157Z,7.53
2023-05-04T10:04:11.458Z,6.55
2023-05-04T10:07:13.579Z,8.23
2023-05-04T10:10:17.909Z,8.18
2023-05-04T10:13:19.706Z,9.80
2023-05-04T10:16:55.278Z,7.20
2023-05-04T10:20:00.064Z,10.82
2023-05-04T10:23:01.949Z,9.93
2023-05-04T10:26:31.165Z,8.30
2023-05-04T10:29:34.676Z,8.05
2023-05-04T10:32:40.665Z,8.07
2023-05-04T10:35:53.026Z,9.68
2023-05-04T10:38:54.988Z,7.40
2023-05-04T10:42:09.182Z,8.45
2023-05-04T10:45:13.737Z,13.60
2023-05-04T10:48:16.676Z,11.68
2023-05-04T10:51:19.987Z,12.05
2023-05-04T10:54:21.831Z,9.50
2023-05-04T10:57:23.636Z,5.43
2023-05-04T11:00:42.313Z,5.75
2023-05-04T11:03:44.456Z,8.43
2023-05-04T11:06:57.446Z,6.85
2023-05-04T11:09:59.952Z,6.97
2023-05-04T11:13:05.899Z,7.07
2023-05-04T11:16:08.204Z,6.97
2023-05-04T11:19:13.128Z,7.07
2023-05-04T11:22:15.484Z,7.63
2023-05-04T11:25:17.905Z,6.90
2023-05-04T11:28:31.304Z,8.98
2023-05-04T11:31:33.207Z,6.70
2023-05-04T11:34:35.060Z,6.38
2023-05-04T11:37:42.142Z,6.50
2023-05-04T11:40:48.112Z,7.40
2023-05-04T11:43:51.100Z,4.85
2023-05-04T11:47:02.243Z,6.55
2023-05-04T11:50:08.781Z,4.10
2023-05-04T11:53:12.314Z,6.53
2023-05-04T11:56:20.392Z,5.97
2023-05-04T11:59:22.204Z,4.60
2023-05-04T12:02:26.583Z,6.07
2023-05-04T12:05:28.668Z,10.73
2023-05-04T12:08:35.908Z,7.30
2023-05-04T12:11:38.496Z,5.55
2023-05-04T12:14:53.450Z,4.27
2023-05-04T12:17:55.497Z,4.70
2023-05-04T12:21:07.796Z,2.30
2023-05-04T12:24:10.097Z,5.68
2023-05-04T12:27:16.217Z,9.05
2023-05-04T12:30:18.054Z,3.60
2023-05-04T12:33:26.314Z,4.10
2023-05-04T12:36:28.042Z,7.78
2023-05-04T12:39:35.288Z,19.60
2023-05-04T12:42:37.083Z,4.82
2023-05-04T12:45:39.734Z,3.75
2023-05-04T12:48:41.516Z,4.10
2023-05-04T12:51:50.453Z,4.65
2023-05-04T12:54:52.209Z,4.38
2023-05-04T12:57:56.395Z,4.63
2023-05-04T13:00:58.981Z,3.63
2023-05-04T13:04:02.800Z,3.00
2023-05-04T13:07:04.611Z,5.18
2023-05-04T13:10:06.832Z,2.75
2023-05-04T13:13:09.090Z,3.83
2023-05-04T13:16:11.594Z,2.78
2023-05-04T13:19:13.499Z,4.50
2023-05-04T13:22:16.194Z,3.38
2023-05-04T13:25:18.124Z,4.00
2023-05-04T13:28:19.939Z,2.20
2023-05-04T13:31:21.804Z,4.45
2023-05-04T13:34:25.314Z,6.95
2023-05-04T13:37:27.814Z,3.63
2023-05-04T13:40:30.348Z,3.27
2023-05-04T13:43:32.415Z,3.47
2023-05-04T13:46:42.697Z,4.88
2023-05-04T13:49:54.267Z,1.98
2023-05-04T13:52:57.024Z,2.58
2023-05-04T13:55:58.883Z,6.90
2023-05-04T13:59:01.595Z,3.05
2023-05-04T14:02:03.632Z,3.38
2023-05-04T14:05:05.968Z,2.80
2023-05-04T14:08:08.147Z,1.90
2023-05-04T14:11:10.168Z,2.00
2023-05-04T14:14:12.123Z,2.55
2023-05-04T14:17:13.979Z,2.65
2023-05-04T14:20:16.185Z,2.47
2023-05-04T14:23:19.567Z,3.60
2023-05-04T14:29:23.932Z,3.55
2023-05-04T14:32:25.823Z,1.75
2023-05-04T14:35:33.794Z,1.83
2023-05-04T14:38:36.130Z,3.95
2023-05-04T14:41:38.508Z,3.75
2023-05-04T14:44:54.958Z,3.53
2023-05-04T14:47:57.696Z,2.03
2023-05-04T14:50:59.510Z,2.85
2023-05-04T14:54:02.127Z,3.33
2023-05-04T14:57:04.532Z,5.03
2023-05-04T15:00:08.780Z,4.93
2023-05-04T15:03:12.402Z,4.82
2023-05-04T15:09:20.926Z,2.88
2023-05-04T15:12:23.695Z,2.45
2023-05-04T15:15:25.977Z,4.38
2023-05-04T15:18:28.102Z,3.17
2023-05-04T15:21:29.835Z,5.38
2023-05-04T15:24:31.933Z,2.95
2023-05-04T15:27:33.697Z,8.30
2023-05-04T15:30:35.646Z,9.70
2023-05-04T15:33:37.364Z,4.80
2023-05-04T15:36:39.997Z,6.40
2023-05-04T15:39:41.917Z,6.35
2023-05-04T15:42:43.729Z,4.68
2023-05-04T15:45:46.251Z,3.58
2023-05-04T15:48:49.126Z,8.30
2023-05-04T15:51:53.419Z,5.65
2023-05-04T15:54:57.116Z,3.45
2023-05-04T15:57:59.050Z,2.90
2023-05-04T16:04:25.663Z,3.00
2023-05-04T16:07:27.734Z,5.55
2023-05-04T16:10:29.749Z,3.88
2023-05-04T16:10:59.855Z,6.93
2023-05-04T16:13:32.284Z,2.63
2023-05-04T16:16:34.284Z,4.57
2023-05-04T16:19:36.291Z,5.68
2023-05-04T16:22:38.101Z,6.07
2023-05-04T16:25:40.138Z,2.75
2023-05-04T16:28:41.999Z,4.25
2023-05-04T16:31:47.415Z,3.60
2023-05-04T16:34:49.149Z,4.47
2023-05-04T16:37:52.489Z,8.75
2023-05-04T16:43:57.842Z,4.07
2023-05-04T16:47:02.345Z,2.33
2023-05-04T16:50:06.370Z,3.95
2023-05-04T16:53:08.513Z,10.95
2023-05-04T16:56:19.121Z,3.67
2023-05-04T16:59:21.216Z,6.65
2023-05-04T17:02:23.056Z,3.25
2023-05-04T17:05:24.867Z,1.90
2023-05-04T17:08:27.552Z,5.43
2023-05-04T17:11:31.012Z,2.20
2023-05-04T17:14:34.010Z,2.13
2023-05-04T17:17:35.813Z,6.95
2023-05-04T17:20:37.826Z,6.75
2023-05-04T17:23:39.540Z,2.85
2023-05-04T17:26:42.077Z,3.05
2023-05-04T17:29:44.257Z,3.97
2023-05-04T17:32:46.150Z,10.38
2023-05-04T17:35:49.403Z,2.75
2023-05-04T17:38:53.220Z,3.92
2023-05-04T17:41:55.056Z,7.32
2023-05-04T17:44:56.859Z,5.47
2023-05-04T17:48:01.226Z,4.63
2023-05-04T17:51:03.426Z,4.93
2023-05-04T17:54:08.464Z,4.80
2023-05-04T17:57:11.114Z,3.42
2023-05-04T18:00:13.724Z,5.30
2023-05-04T18:03:16.136Z,5.80
2023-05-04T18:06:17.935Z,2.93
2023-05-04T18:09:19.823Z,8.73
2023-05-04T18:12:22.508Z,7.55
2023-05-04T18:15:24.300Z,6.80
2023-05-04T18:18:26.077Z,3.25
2023-05-04T18:21:28.330Z,3.72
2023-05-04T18:24:31.950Z,4.75
2023-05-04T18:27:37.893Z,3.75
2023-05-04T18:30:39.884Z,6.75
2023-05-04T18:33:43.372Z,3.13
2023-05-04T18:36:46.517Z,3.83
2023-05-04T18:39:49.905Z,9.25
2023-05-04T18:42:51.884Z,4.10
2023-05-04T18:45:54.169Z,3.55
2023-05-04T18:48:57.628Z,3.05
2023-05-04T18:55:03.584Z,5.97
2023-05-04T18:58:05.597Z,6.15
2023-05-04T19:01:07.588Z,5.05
2023-05-04T19:04:12.694Z,4.82
2023-05-04T19:07:15.719Z,3.30
2023-05-04T19:10:17.928Z,4.68
2023-05-04T19:13:20.865Z,4.88
2023-05-04T19:16:24.210Z,5.93
2023-05-04T19:22:29.045Z,3.33
2023-05-04T19:25:34.962Z,5.73
2023-05-04T19:28:37.601Z,3.78
2023-05-04T19:31:39.837Z,3.97
2023-05-04T19:34:44.033Z,5.15
2023-05-04T19:37:46.392Z,5.15
2023-05-04T19:40:49.026Z,6.43
2023-05-04T19:43:51.150Z,7.80
2023-05-04T19:46:56.345Z,5.45
2023-05-04T19:49:58.216Z,11.13
2023-05-04T19:53:00.369Z,6.30
2023-05-04T19:56:02.303Z,7.78
2023-05-04T19:59:04.985Z,5.30
2023-05-04T20:02:07.065Z,4.50
2023-05-04T20:05:09.265Z,4.85
2023-05-04T20:08:11.613Z,7.57
2023-05-04T20:11:13.957Z,8.85
2023-05-04T20:14:15.818Z,8.77
2023-05-04T20:17:17.759Z,5.38
2023-05-04T20:20:21.533Z,5.72
2023-05-04T20:23:23.664Z,7.80
2023-05-04T20:26:25.406Z,8.27
2023-05-04T20:29:27.525Z,7.13
2023-05-04T20:32:31.143Z,5.78
2023-05-04T20:35:33.152Z,9.35
2023-05-04T20:38:35.147Z,4.72
2023-05-04T20:41:42.755Z,5.18
2023-05-04T20:44:45.232Z,4.47
2023-05-04T20:47:47.224Z,3.93
2023-05-04T20:50:50.343Z,4.38
2023-05-04T20:53:55.366Z,4.55
2023-05-04T20:56:57.205Z,5.72
2023-05-04T20:59:59.121Z,3.88
2023-05-04T21:03:01.078Z,6.65
2023-05-04T21:06:04.711Z,6.78
2023-05-04T21:09:07.208Z,4.53
2023-05-04T21:12:10.321Z,8.00
2023-05-04T21:15:12.877Z,6.28
2023-05-04T21:18:15.027Z,4.63
2023-05-04T21:21:16.876Z,11.20
2023-05-04T21:24:18.765Z,6.18
2023-05-04T21:27:21.163Z,6.38
2023-05-04T21:30:25.353Z,7.40
2023-05-04T21:33:27.350Z,6.00
2023-05-04T21:36:29.409Z,5.95
2023-05-04T21:39:31.717Z,5.80
2023-05-04T21:42:33.736Z,5.68
2023-05-04T21:45:42.296Z,5.20
2023-05-04T21:48:48.806Z,5.68
2023-05-04T21:51:50.580Z,7.07
2023-05-04T21:54:53.274Z,5.38
2023-05-04T21:57:55.010Z,8.07
2023-05-04T22:00:57.328Z,6.13
2023-05-04T22:03:59.461Z,4.85
2023-05-04T22:07:01.413Z,4.93
2023-05-04T22:10:04.502Z,7.00
2023-05-04T22:13:07.273Z,5.13
2023-05-04T22:16:09.364Z,5.47
2023-05-04T22:19:11.801Z,5.32
2023-05-04T22:22:13.692Z,5.05
2023-05-04T22:25:15.510Z,8.57
2023-05-04T22:28:17.653Z,6.80
2023-05-04T22:31:20.286Z,4.93
2023-05-04T22:34:22.128Z,7.13
2023-05-04T22:37:24.092Z,6.75
2023-05-04T22:40:26.153Z,6.60
2023-05-04T22:43:28.157Z,5.70
2023-05-04T22:46:30.703Z,6.60
2023-05-04T22:49:32.756Z,10.63
2023-05-04T22:52:34.612Z,5.43
2023-05-04T22:55:36.537Z,6.68
2023-05-04T22:58:38.452Z,6.05
2023-05-04T23:01:43.492Z,5.72
2023-05-04T23:04:45.593Z,5.25
2023-05-04T23:07:47.698Z,6.47
2023-05-04T23:10:49.474Z,7.30
2023-05-04T23:13:53.017Z,6.40
2023-05-04T23:16:54.974Z,6.80
2023-05-04T23:19:57.724Z,6.13
2023-05-04T23:22:59.681Z,6.57
2023-05-04T23:26:01.523Z,10.23
2023-05-04T23:29:03.505Z,8.48
2023-05-04T23:32:05.960Z,6.88
2023-05-04T23:35:08.303Z,7.23
2023-05-04T23:38:11.656Z,6.28
2023-05-04T23:44:16.600Z,6.22
2023-05-04T23:47:18.520Z,8.75
2023-05-04T23:50:21.034Z,8.13
2023-05-04T23:53:23.054Z,8.70
2023-05-04T23:56:25.830Z,5.85
2023-05-04T23:59:27.800Z,6.45
